Portada
METAR-TAF:

METAR-TAF

Aeroports :

Ísafjörður, Islàndia

latitud: 66-03-29N, longitud: 23-08-07W, altitud: 2 m

Observació

L'informe es va fer fa 3 hores i 9 minuts, a les 18:00 UTC
Vent calma
Temperatura 16°C
Humitat 59%
Pressió 1011 hPa
Visibilitat 10 km o més
sense núvols per sota de 1500 mi sense presència de cumulonimbus.

METAR: BIIS 151800Z 00000KT CAVOK 16/08 Q1011

Hora: 21:09 (21:09 UTC)

Pronòstic

L'informe es va fer fa 5 hores i 9 minuts, a les 16:00 UTC
Pronòstic vàlid del 15 a les 17 UTC al 15 a les 20 UTC
Vent 6 kt del Nord-Est
Visibilitat 10 km o més
sense núvols per sota de 1500 mi sense presència de cumulonimbus.

TAF: BIIS 151600Z 1517/1520 05006KT CAVOK

Observacions i pronòstics meteorològics de més de 4000 aeroports (METAR i TAF).

Les estacions disponibles són els punts grocs i vermells al mapa.

Posi el ratolí al punt desitjat per veure el nom de l'estació.

Feu clic per veure les observacions i els pronòstics meteorològics.

Per canviar el mapa: feu clic els botons verds amb una creu de color negre per apropar; al botó verd amb un guió per allunyar la imatge; o en les fletxes verdes per a mapes adjacents.


METAR-TAF: